Time;durP1;ratioP1;P1;durP2;ratioP2;P2;SDS_P1;SDS_P2;PMS_P1;PMS_P2;Temp;Humidity;BMP_temperature;BMP_pressure;BME280_temperature;BME280_humidity;BME280_pressure;Samples;Min_cycle;Max_cycle;Signal;HPM_P1;HPM_P2
2021/12/14 00:01:17;;;;;;;;;;;;;;;0.25;81.68;102239.88;5112865;28;20031;-65
2021/12/14 00:03:45;;;;;;;15.50;11.27;;;;;;;0.24;82.14;102241.66;5111627;28;19922;-64
2021/12/14 00:06:13;;;;;;;18.27;13.05;;;;;;;0.19;81.75;102233.13;5112183;28;20269;-63
2021/12/14 00:08:49;;;;;;;15.13;11.60;;;;;;;0.25;82.05;102239.88;5112618;28;20043;-63
2021/12/14 00:11:37;;;;;;;15.00;11.10;;;;;;;0.29;81.76;102233.63;5113266;28;20269;-63
2021/12/14 00:14:27;;;;;;;17.57;11.73;;;;;;;0.17;81.48;102214.00;5112069;28;20269;-63
2021/12/14 00:16:57;;;;;;;19.83;13.10;;;;;;;0.29;81.90;102229.25;5112210;28;20257;-64
2021/12/14 00:19:26;;;;;;;17.07;11.33;;;;;;;0.26;81.47;102229.34;5112494;28;20273;-65
2021/12/14 00:21:54;;;;;;;15.23;10.88;;;;;;;0.11;81.42;102203.75;5112144;28;20304;-63
2021/12/14 00:24:26;;;;;;;14.73;10.50;;;;;;;0.13;81.02;102204.53;5112158;28;20055;-61
2021/12/14 00:26:59;;;;;;;17.17;10.67;;;;;;;0.11;81.20;102216.84;5112078;28;20043;-64
2021/12/14 00:29:32;;;;;;;14.70;10.73;;;;;;;-0.27;80.58;102149.41;5113085;28;20272;-63
2021/12/14 00:32:02;;;;;;;17.47;10.67;;;;;;;0.01;80.83;102188.47;5116151;28;20269;-63
2021/12/14 00:34:38;;;;;;;13.77;11.00;;;;;;;-0.07;80.93;102188.75;5115900;28;20380;-64
2021/12/14 00:37:07;;;;;;;16.17;10.33;;;;;;;0.03;81.15;102216.31;5115910;28;20756;-64
2021/12/14 00:39:33;;;;;;;16.52;11.57;;;;;;;0.03;81.15;102220.69;5115526;28;20720;-64
2021/12/14 00:41:59;;;;;;;19.43;10.83;;;;;;;-0.06;80.22;102201.78;5115642;28;20123;-63
2021/12/14 00:44:25;;;;;;;15.00;9.80;;;;;;;-0.07;80.75;102207.09;5115773;28;20027;-63
2021/12/14 00:46:51;;;;;;;14.23;10.87;;;;;;;-0.01;81.31;102219.94;5115575;28;20606;-65
2021/12/14 00:49:17;;;;;;;18.03;12.13;;;;;;;-0.05;81.28;102200.00;5115518;28;20077;-65
2021/12/14 00:51:44;;;;;;;13.57;9.47;;;;;;;-0.01;80.52;102209.47;5115481;28;20044;-63
2021/12/14 00:54:14;;;;;;;14.60;9.77;;;;;;;0.05;80.51;102219.72;5115206;28;20585;-63
2021/12/14 00:56:40;;;;;;;12.20;8.37;;;;;;;-0.04;79.55;102222.66;5115630;28;20044;-63
2021/12/14 00:59:08;;;;;;;11.67;8.03;;;;;;;-0.19;80.42;102215.41;5115505;28;20740;-63
2021/12/14 01:01:41;;;;;;;13.77;9.20;;;;;;;-0.17;80.70;102218.81;5115095;28;20258;-64
2021/12/14 01:04:14;;;;;;;12.43;9.17;;;;;;;-0.17;80.42;102227.53;5115541;28;20760;-64
2021/12/14 01:06:45;;;;;;;14.40;9.67;;;;;;;-0.35;80.78;102199.41;5115518;28;20360;-65
2021/12/14 01:09:16;;;;;;;11.50;8.40;;;;;;;-0.25;80.27;102236.59;5115431;28;20266;-64
2021/12/14 01:11:46;;;;;;;13.53;9.17;;;;;;;-0.42;80.43;102224.13;5115511;28;20254;-64
2021/12/14 01:14:17;;;;;;;13.37;8.73;;;;;;;-0.50;80.67;102213.94;5114928;28;20272;-63
2021/12/14 01:17:09;;;;;;;14.63;9.57;;;;;;;-0.55;81.11;102223.72;5114925;28;20270;-65
2021/12/14 01:19:36;;;;;;;14.57;9.83;;;;;;;-0.52;81.99;102241.94;5115104;28;20307;-63
2021/12/14 01:27:31;;;;;;;14.37;9.77;;;;;;;-0.46;80.42;102236.47;5114628;28;20278;-64
2021/12/14 01:30:01;;;;;;;13.57;9.13;;;;;;;-0.49;80.34;102220.03;5114945;28;20266;-63
2021/12/14 01:32:30;;;;;;;11.67;9.57;;;;;;;-0.49;80.04;102223.50;5114727;28;20456;-61
2021/12/14 01:34:56;;;;;;;12.07;9.10;;;;;;;-1.07;80.33;102128.81;5096454;28;20301;-63
2021/12/14 01:37:27;;;;;;;12.73;9.33;;;;;;;-0.51;80.80;102219.25;5114606;28;20410;-63
2021/12/14 01:40:06;;;;;;;13.50;9.37;;;;;;;-0.43;80.42;102230.28;5096028;28;20047;-62
2021/12/14 01:42:36;;;;;;;14.60;9.20;;;;;;;-0.55;80.26;102228.13;5114748;28;20299;-64
2021/12/14 01:45:11;;;;;;;15.50;9.37;;;;;;;-0.63;80.95;102210.91;5114713;28;20285;-62
2021/12/14 01:47:49;;;;;;;11.67;7.97;;;;;;;-0.54;80.44;102209.75;5114414;28;20779;-65
2021/12/14 01:50:26;;;;;;;13.40;8.70;;;;;;;-0.52;81.15;102223.63;5114331;28;20296;-62
2021/12/14 01:52:52;;;;;;;12.53;7.97;;;;;;;-0.55;80.69;102218.50;5114476;28;20058;-62
2021/12/14 01:55:25;;;;;;;15.57;8.87;;;;;;;-0.56;80.87;102224.66;5114211;28;20767;-62
2021/12/14 01:57:54;;;;;;;12.27;8.23;;;;;;;-0.54;81.20;102216.72;5114165;28;20037;-63
2021/12/14 02:00:27;;;;;;;14.30;10.53;;;;;;;-0.70;81.03;102183.25;5114099;28;20269;-63
2021/12/14 02:02:53;;;;;;;12.00;9.07;;;;;;;-0.82;81.09;102177.63;5114011;28;20258;-62
2021/12/14 02:05:35;;;;;;;11.23;8.60;;;;;;;-0.64;81.33;102218.81;5114299;28;20624;-62
2021/12/14 02:08:12;;;;;;;13.17;9.93;;;;;;;-0.69;81.77;102210.28;5114174;28;20035;-62
2021/12/14 02:10:38;;;;;;;10.70;8.40;;;;;;;-0.56;81.29;102216.78;5095641;28;20891;-63
2021/12/14 02:13:06;;;;;;;12.20;8.90;;;;;;;-0.68;80.64;102199.75;5114052;28;20285;-63
2021/12/14 02:15:38;;;;;;;15.20;8.77;;;;;;;-0.59;81.25;102223.88;5113532;28;20469;-62
2021/12/14 02:18:14;;;;;;;11.90;9.63;;;;;;;-0.83;80.75;102189.00;5113847;28;20621;-65
2021/12/14 02:20:52;;;;;;;11.80;8.17;;;;;;;-0.75;81.19;102211.34;5113817;28;20720;-63
2021/12/14 02:23:20;;;;;;;12.07;8.40;;;;;;;-0.75;81.02;102202.66;5113668;28;20266;-63
2021/12/14 02:26:15;;;;;;;11.27;8.47;;;;;;;-0.70;81.72;102213.81;5113889;28;20050;-61
2021/12/14 02:28:41;;;;;;;10.93;8.07;;;;;;;-0.72;81.42;102199.94;5113778;28;20317;-64
2021/12/14 02:31:10;;;;;;;11.60;8.23;;;;;;;-0.72;81.57;102199.94;5113655;28;20293;-63
2021/12/14 02:33:39;;;;;;;11.93;8.37;;;;;;;-0.77;80.93;102196.63;5113845;28;20035;-62
2021/12/14 02:36:09;;;;;;;12.48;8.65;;;;;;;-0.86;81.71;102186.50;5113326;28;20285;-64
2021/12/14 02:38:43;;;;;;;14.00;9.50;;;;;;;-0.69;81.82;102205.03;5095599;28;20043;-63
2021/12/14 02:41:09;;;;;;;12.80;9.50;;;;;;;-0.69;81.68;102210.28;5114784;28;20262;-64
2021/12/14 02:43:37;;;;;;;14.73;9.90;;;;;;;-0.63;81.45;102215.28;5114845;28;20288;-62
2021/12/14 02:46:06;;;;;;;13.90;9.85;;;;;;;-0.66;81.00;102204.94;5114775;28;20058;-61
2021/12/14 02:48:33;;;;;;;16.77;9.80;;;;;;;-0.68;82.02;102204.13;5114041;28;20040;-62
2021/12/14 02:51:26;;;;;;;12.93;9.97;;;;;;;-0.61;81.60;102197.75;5095492;28;20032;-61
2021/12/14 02:53:56;;;;;;;17.27;9.83;;;;;;;-0.54;81.05;102195.81;5094027;28;20277;-63
2021/12/14 02:56:26;;;;;;;12.77;9.70;;;;;;;-0.56;81.36;102197.63;5113419;28;20373;-63
2021/12/14 02:59:00;;;;;;;18.10;10.77;;;;;;;-0.54;81.95;102194.03;5113431;28;20281;-63
2021/12/14 03:01:27;;;;;;;14.70;10.37;;;;;;;-0.53;80.79;102190.50;5114007;28;20265;-62
2021/12/14 03:03:52;;;;;;;13.77;9.33;;;;;;;-0.52;80.98;102191.38;5095754;28;20302;-62
2021/12/14 03:06:23;;;;;;;14.47;9.90;;;;;;;-0.51;80.94;102193.91;5113407;28;20731;-62
2021/12/14 03:09:07;;;;;;;13.47;10.67;;;;;;;-0.51;81.49;102188.69;5113260;28;20035;-63
2021/12/14 03:11:34;;;;;;;15.50;10.83;;;;;;;-0.51;81.13;102183.44;5112674;28;20293;-65
2021/12/14 03:14:00;;;;;;;14.53;10.53;;;;;;;-0.46;80.74;102175.41;5113719;28;20277;-62
2021/12/14 03:16:30;;;;;;;12.00;9.40;;;;;;;-0.40;80.93;102181.28;5116486;28;20283;-63
2021/12/14 03:18:58;;;;;;;12.63;8.50;;;;;;;-0.47;80.62;102164.09;5116400;28;20028;-63
2021/12/14 03:21:28;;;;;;;13.57;10.07;;;;;;;-0.52;80.35;102167.81;5115824;28;20641;-64
2021/12/14 03:24:07;;;;;;;12.87;8.47;;;;;;;-0.64;80.97;102146.41;5113637;28;20281;-63
2021/12/14 03:26:35;;;;;;;13.05;9.52;;;;;;;-0.57;80.90;102162.75;5112909;28;20276;-63
2021/12/14 03:29:09;;;;;;;14.07;9.07;;;;;;;-0.49;81.32;102178.16;5112557;28;20494;-64
2021/12/14 03:31:38;;;;;;;14.50;10.37;;;;;;;-0.51;80.83;102183.44;5112696;28;20763;-62
2021/12/14 03:34:26;;;;;;;14.40;10.00;;;;;;;-0.43;81.22;102180.53;5112590;28;20311;-62
2021/12/14 03:37:14;;;;;;;13.13;9.70;;;;;;;-0.43;80.91;102185.78;5112322;28;20258;-63
2021/12/14 03:39:47;;;;;;;13.00;9.48;;;;;;;-0.41;80.78;102187.41;5083546;28;20301;-62
2021/12/14 03:42:21;;;;;;;15.53;10.97;;;;;;;-0.46;80.40;102171.03;5112836;28;20031;-63
2021/12/14 03:44:51;;;;;;;15.43;10.37;;;;;;;-0.45;80.70;102174.50;5077053;28;20852;-65
2021/12/14 03:47:25;;;;;;;14.70;11.07;;;;;;;-0.91;80.88;102096.88;5111668;28;20277;-64
2021/12/14 03:49:54;;;;;;;16.03;10.77;;;;;;;-0.47;80.54;102171.97;5093985;28;20323;-62
2021/12/14 03:52:24;;;;;;;15.67;9.73;;;;;;;-0.45;80.36;102183.22;5112142;28;20268;-62
2021/12/14 03:54:52;;;;;;;12.53;9.47;;;;;;;-0.44;80.98;102171.84;5112017;28;20796;-64
2021/12/14 03:57:18;;;;;;;15.90;10.90;;;;;;;-0.43;81.10;102164.84;5111917;28;20353;-63
2021/12/14 03:59:45;;;;;;;18.63;10.57;;;;;;;-0.45;80.29;102154.44;5112002;28;20852;-62
2021/12/14 04:02:17;;;;;;;14.23;9.80;;;;;;;-0.45;80.10;102154.44;5093820;28;20360;-64
2021/12/14 04:04:53;;;;;;;14.17;10.87;;;;;;;-0.76;80.34;102112.00;5115042;28;20326;-63
2021/12/14 04:07:19;;;;;;;16.00;10.47;;;;;;;-0.50;81.07;102159.00;5116131;28;20257;-63
2021/12/14 04:09:46;;;;;;;15.73;10.90;;;;;;;-0.52;81.09;102160.81;5098381;28;20260;-64
2021/12/14 04:12:16;;;;;;;18.20;10.00;;;;;;;-0.41;80.49;102166.47;5097504;28;20301;-63
2021/12/14 04:14:44;;;;;;;14.40;10.03;;;;;;;-0.38;80.97;102163.75;5116328;28;20335;-63
2021/12/14 04:17:11;;;;;;;16.13;9.57;;;;;;;-0.47;80.27;102148.41;5081087;28;20270;-67
2021/12/14 04:19:38;;;;;;;15.73;10.90;;;;;;;-0.21;80.39;102159.66;5116110;28;20039;-62
2021/12/14 04:22:09;;;;;;;20.90;11.27;;;;;;;-0.18;79.85;102159.53;5116041;28;20361;-65
2021/12/14 04:24:38;;;;;;;16.03;11.03;;;;;;;-0.18;79.54;102146.44;5097283;28;20338;-63
2021/12/14 04:27:06;;;;;;;;;;;;;;;-0.22;79.28;102143.09;5115912;28;20282;-62
2021/12/14 04:29:32;;;;;;;16.00;10.45;;;;;;;-0.36;80.36;102138.38;5116404;28;19955;-63
2021/12/14 04:31:58;;;;;;;16.30;11.27;;;;;;;-0.48;80.22;102123.16;5115712;28;20043;-62
2021/12/14 04:34:24;;;;;;;17.50;10.80;;;;;;;-0.49;80.36;102129.28;5115834;28;20288;-65
2021/12/14 04:36:52;;;;;;;16.63;10.60;;;;;;;-0.46;81.02;102138.78;5115441;28;20032;-65
2021/12/14 04:53:11;;;;;;;18.07;11.17;;;;;;;-0.43;79.84;102108.09;5115415;28;20293;-65
2021/12/14 04:55:45;;;;;;;20.23;11.53;;;;;;;-0.31;79.70;102122.47;5115165;28;20304;-63
2021/12/14 04:58:12;;;;;;;21.33;11.73;;;;;;;-0.24;79.19;102128.34;5114938;28;20687;-63
2021/12/14 05:00:46;;;;;;;19.40;13.67;;;;;;;-0.24;79.29;102121.34;5115505;28;20265;-63
2021/12/14 05:03:17;;;;;;;16.83;11.23;;;;;;;-0.34;79.73;102097.28;5115155;28;20256;-64
2021/12/14 05:05:56;;;;;;;14.03;10.00;;;;;;;-0.23;79.72;102099.47;5114816;28;20327;-65
2021/12/14 05:11:01;;;;;;;15.63;10.90;;;;;;;-0.20;79.44;102085.41;5115499;28;20115;-63
2021/12/14 05:13:34;;;;;;;16.33;9.70;;;;;;;-0.15;79.52;102093.94;5096885;28;20040;-63
2021/12/14 05:15:59;;;;;;;17.40;10.80;;;;;;;-0.24;78.84;102081.22;5095966;28;20791;-63
2021/12/14 05:18:25;;;;;;;15.27;10.50;;;;;;;-0.14;80.18;102093.03;5114906;28;20266;-63
2021/12/14 05:20:52;;;;;;;18.40;12.13;;;;;;;-0.10;79.61;102090.22;5115508;28;20119;-69
2021/12/14 05:23:57;;;;;;;14.70;9.73;;;;;;;-0.08;78.98;102082.28;5096637;28;20092;-66
2021/12/14 05:27:10;;;;;;;18.97;10.93;;;;;;;-0.13;79.34;102084.25;5072605;28;20289;-66
2021/12/14 05:29:41;;;;;;;19.77;11.20;;;;;;;-0.19;78.63;102068.78;5074218;28;20354;-67
2021/12/14 05:32:31;;;;;;;16.50;10.77;;;;;;;-0.20;79.52;102070.56;5072506;28;20283;-64
2021/12/14 05:35:29;;;;;;;12.57;9.97;;;;;;;-0.64;80.20;101984.19;5073992;28;20298;-68
2021/12/14 05:37:56;;;;;;;15.18;10.68;;;;;;;-0.22;79.54;102059.31;4987069;28;20314;-65
2021/12/14 05:41:08;;;;;;;15.67;9.43;;;;;;;-0.26;79.59;102057.72;5072183;28;20535;-70
2021/12/14 05:43:55;;;;;;;15.77;9.13;;;;;;;-0.24;79.95;102082.06;5072617;28;20808;-67
2021/12/14 05:46:28;;;;;;;15.00;9.40;;;;;;;-0.23;80.24;102078.53;5074075;28;20263;-62
2021/12/14 05:49:26;;;;;;;21.83;10.87;;;;;;;-0.24;79.30;102078.59;5034206;28;20324;-65
2021/12/14 05:51:53;;;;;;;16.48;9.55;;;;;;;-0.21;79.56;102083.72;5051499;28;20255;-65
2021/12/14 05:54:22;;;;;;;18.50;10.17;;;;;;;-0.36;79.67;102057.22;5018849;28;20043;-66
2021/12/14 05:56:48;;;;;;;17.52;10.27;;;;;;;-0.21;79.99;102081.94;5051517;28;20302;-63
2021/12/14 05:59:21;;;;;;;14.67;9.10;;;;;;;-0.08;79.98;102088.38;5051217;28;20037;-63
2021/12/14 06:01:48;;;;;;;16.27;10.60;;;;;;;-0.01;79.09;102088.97;5051266;28;20283;-64
2021/12/14 06:04:14;;;;;;;13.00;9.10;;;;;;;-0.01;78.86;102081.13;5051357;28;20297;-65
2021/12/14 06:06:45;;;;;;;17.13;10.07;;;;;;;-0.08;78.93;102071.81;5051281;28;20367;-64
2021/12/14 06:09:31;;;;;;;14.67;9.67;;;;;;;0.00;78.53;102082.84;5051507;28;20782;-66
2021/12/14 06:12:06;;;;;;;14.53;9.50;;;;;;;-0.02;79.14;102082.03;5051431;28;20268;-63
2021/12/14 06:14:31;;;;;;;18.33;10.50;;;;;;;0.02;78.97;102088.03;5051337;28;20290;-63
2021/12/14 06:17:00;;;;;;;13.57;9.63;;;;;;;0.02;78.56;102086.25;5034453;28;20263;-64
2021/12/14 06:19:27;;;;;;;14.30;9.68;;;;;;;-0.07;78.88;102068.28;5057367;28;20120;-63
2021/12/14 06:22:03;;;;;;;18.50;10.47;;;;;;;-0.01;79.01;102088.97;5073183;28;20511;-63
2021/12/14 06:24:33;;;;;;;14.40;9.33;;;;;;;-0.06;79.26;102083.09;5091903;28;20293;-65
2021/12/14 06:27:08;;;;;;;16.57;10.30;;;;;;;-0.07;79.28;102082.22;5095559;28;20281;-63
2021/12/14 06:29:38;;;;;;;17.07;11.17;;;;;;;0.01;78.67;102089.78;5095162;28;20269;-66
2021/12/14 06:32:10;;;;;;;15.93;10.33;;;;;;;-0.04;79.25;102076.00;5113087;28;20756;-65
2021/12/14 06:34:42;;;;;;;18.87;10.23;;;;;;;0.05;79.22;102083.50;5111649;28;20289;-64
2021/12/14 06:37:19;;;;;;;12.77;9.43;;;;;;;0.11;79.14;102079.78;5113544;28;20284;-67
2021/12/14 06:40:06;;;;;;;13.93;9.93;;;;;;;0.15;78.60;102083.97;5113237;28;20277;-68
2021/12/14 06:42:36;;;;;;;19.53;10.87;;;;;;;-0.55;78.81;101983.00;5094883;28;20276;-64
2021/12/14 06:45:16;;;;;;;21.03;10.90;;;;;;;0.01;79.24;102081.94;5113239;28;20371;-66
2021/12/14 06:47:44;;;;;;;19.17;12.67;;;;;;;-0.04;79.50;102083.88;5113775;28;20373;-64
2021/12/14 06:50:17;;;;;;;16.57;10.43;;;;;;;-0.15;79.69;102073.00;5113007;28;20274;-64
2021/12/14 06:52:43;;;;;;;16.17;10.03;;;;;;;-0.14;79.18;102079.94;5113042;28;20261;-66
2021/12/14 06:55:21;;;;;;;16.27;10.27;;;;;;;-0.17;79.56;102086.16;5112935;28;20297;-64
2021/12/14 06:57:47;;;;;;;15.57;9.93;;;;;;;-0.20;79.84;102067.09;5113031;28;20042;-63
2021/12/14 07:00:13;;;;;;;15.40;10.40;;;;;;;-0.21;80.20;102070.63;5094518;28;20032;-61
2021/12/14 07:02:45;;;;;;;14.67;8.83;;;;;;;-0.13;79.71;102079.00;5095073;28;20032;-61
2021/12/14 07:05:20;;;;;;;15.17;10.30;;;;;;;-0.09;79.82;102075.34;5113069;28;20352;-61
2021/12/14 07:07:45;;;;;;;15.63;11.17;;;;;;;-0.12;79.37;102078.09;5113292;28;20269;-61
2021/12/14 07:10:12;;;;;;;15.93;11.43;;;;;;;-0.18;79.61;102086.22;5113105;28;20749;-62
2021/12/14 07:12:38;;;;;;;12.90;9.30;;;;;;;-0.24;79.84;102086.47;5112618;28;20441;-61
2021/12/14 07:15:27;;;;;;;15.87;10.53;;;;;;;-0.19;79.56;102081.88;5112480;28;20288;-62
2021/12/14 07:18:02;;;;;;;15.52;9.70;;;;;;;-0.24;80.29;102065.50;5112505;28;20737;-67
2021/12/14 07:20:51;;;;;;;14.47;9.80;;;;;;;-0.12;79.76;102086.81;5095212;28;20494;-62
2021/12/14 07:23:33;;;;;;;17.20;11.00;;;;;;;-0.13;79.90;102089.50;5113512;28;20273;-65
2021/12/14 07:26:09;;;;;;;15.90;9.77;;;;;;;-0.22;79.68;102063.69;5074249;28;20781;-65
2021/12/14 07:28:43;;;;;;;14.77;9.70;;;;;;;-0.21;79.99;102073.25;5076054;28;20281;-66
2021/12/14 07:31:19;;;;;;;14.83;10.50;;;;;;;-0.21;79.69;102075.84;5072844;28;20274;-63
2021/12/14 07:33:50;;;;;;;13.00;9.17;;;;;;;-0.19;79.96;102082.75;5072047;28;20290;-65
2021/12/14 07:36:29;;;;;;;16.37;10.90;;;;;;;-0.27;79.89;102060.41;5072771;28;20293;-65
2021/12/14 07:39:00;;;;;;;15.80;12.67;;;;;;;-0.18;80.47;102075.72;5071521;28;20737;-67
2021/12/14 07:41:30;;;;;;;17.30;11.37;;;;;;;-0.18;80.22;102065.25;5071883;28;20277;-69
2021/12/14 07:43:57;;;;;;;;;;;;;;;-0.11;80.21;102069.31;5072456;28;20274;-65
2021/12/14 07:46:38;;;;;;;16.00;10.77;;;;;;;-0.08;79.70;102061.34;5072640;28;20089;-69
2021/12/14 07:49:09;;;;;;;19.83;11.13;;;;;;;-0.08;79.72;102048.25;5071217;28;20302;-68
2021/12/14 07:51:38;;;;;;;24.00;13.47;;;;;;;-0.13;80.09;102043.22;5070211;28;20781;-69
2021/12/14 07:54:09;;;;;;;;;;;;;;;-0.14;79.78;102051.13;5071796;28;20656;-61
2021/12/14 07:56:44;;;;;;;17.27;12.07;;;;;;;-0.18;79.93;102039.06;5071460;28;19957;-63
2021/12/14 07:59:18;;;;;;;16.20;12.37;;;;;;;-0.17;79.93;102036.41;5071462;28;20357;-72
2021/12/14 08:01:46;;;;;;;18.50;11.33;;;;;;;-0.10;79.64;102050.06;5071562;28;20294;-65
2021/12/14 08:04:12;;;;;;;18.25;11.13;;;;;;;-0.10;80.02;102043.06;5069966;28;20262;-64
2021/12/14 08:06:49;;;;;;;17.80;11.47;;;;;;;-0.73;79.28;101955.78;5071551;28;20511;-63
2021/12/14 08:09:31;;;;;;;16.83;10.93;;;;;;;-0.25;79.62;102033.25;5071403;28;20059;-67
2021/12/14 08:11:56;;;;;;;18.90;12.57;;;;;;;-0.30;80.07;102043.03;5071963;28;20263;-77
2021/12/14 08:14:27;;;;;;;18.97;11.07;;;;;;;-0.31;80.18;102042.19;5072097;28;20273;-71
2021/12/14 08:17:05;;;;;;;21.57;11.27;;;;;;;-0.24;80.28;102034.09;5071441;28;20044;-71
2021/12/14 08:19:39;;;;;;;17.65;10.90;;;;;;;-0.28;79.90;102033.38;5071605;28;20757;-68
2021/12/14 08:22:15;;;;;;;17.57;11.10;;;;;;;-0.38;80.09;102011.94;5071361;28;20086;-71
2021/12/14 08:24:51;;;;;;;18.30;11.80;;;;;;;-0.16;79.63;102042.47;5081488;28;20514;-73
2021/12/14 08:27:22;;;;;;;20.17;12.00;;;;;;;-0.27;79.91;102027.22;5091508;28;20279;-71
2021/12/14 08:29:54;;;;;;;20.60;11.17;;;;;;;-0.21;79.58;102026.13;5089020;28;20266;-65
2021/12/14 08:32:24;;;;;;;17.63;10.37;;;;;;;-0.26;80.21;102012.38;5091324;28;20270;-62
2021/12/14 08:34:52;;;;;;;22.23;11.07;;;;;;;-0.19;80.11;102011.19;5087361;28;20290;-68
2021/12/14 08:37:20;;;;;;;17.60;10.30;;;;;;;-0.07;79.58;102027.22;5090208;28;20277;-62
2021/12/14 08:39:50;;;;;;;21.77;11.27;;;;;;;-0.09;79.85;102025.59;5091362;28;20040;-63
2021/12/14 08:42:30;;;;;;;14.90;10.10;;;;;;;-0.22;79.56;102006.09;5091380;28;20690;-64
2021/12/14 08:44:59;;;;;;;15.17;9.80;;;;;;;-0.11;79.49;102020.44;5091442;28;20270;-63
2021/12/14 08:47:33;;;;;;;13.90;10.35;;;;;;;-0.06;79.58;102017.59;5091329;28;20336;-65
2021/12/14 08:50:03;;;;;;;20.30;11.93;;;;;;;-0.20;79.00;101996.41;5091668;28;20089;-71
2021/12/14 08:52:30;;;;;;;18.77;11.13;;;;;;;-0.16;79.53;102001.44;5094842;28;20270;-68
2021/12/14 08:55:05;;;;;;;18.23;10.80;;;;;;;-0.10;79.10;102005.56;5093190;28;20286;-67
2021/12/14 08:57:32;;;;;;;18.23;10.50;;;;;;;-0.15;79.18;102003.13;5094677;28;20352;-68
2021/12/14 09:00:10;;;;;;;19.15;11.93;;;;;;;-0.07;79.30;102014.13;5093553;28;20278;-63
2021/12/14 09:02:36;;;;;;;18.53;11.83;;;;;;;-0.28;79.23;101964.47;5093541;28;20097;-65
2021/12/14 09:05:05;;;;;;;19.43;10.10;;;;;;;0.03;79.11;102012.00;5094721;28;20263;-68
2021/12/14 09:07:31;;;;;;;15.82;10.10;;;;;;;-0.05;78.60;101987.88;5094684;28;20093;-63
2021/12/14 09:09:59;;;;;;;12.60;9.60;;;;;;;0.00;78.14;101983.34;5094640;28;20180;-65
2021/12/14 09:12:37;;;;;;;15.97;9.57;;;;;;;-0.05;77.86;101973.03;5094921;28;20768;-62
2021/12/14 09:15:20;;;;;;;17.73;11.37;;;;;;;0.05;78.18;101983.13;5094566;28;20336;-64
2021/12/14 09:17:47;;;;;;;19.40;11.93;;;;;;;0.08;78.08;101986.47;5094591;28;20258;-63
2021/12/14 09:20:29;;;;;;;16.87;11.13;;;;;;;0.08;77.83;101981.22;5094464;28;20341;-64
2021/12/14 09:23:06;;;;;;;16.30;9.63;;;;;;;0.16;77.54;101984.38;5094345;28;20315;-68
2021/12/14 09:25:32;;;;;;;13.27;8.67;;;;;;;0.04;77.60;101958.72;5093752;28;20349;-72
2021/12/14 09:28:01;;;;;;;21.30;9.87;;;;;;;0.02;77.90;101963.16;5095246;28;20312;-72
2021/12/14 09:30:30;;;;;;;14.70;9.63;;;;;;;0.03;77.51;101959.63;5095464;28;20309;-72
2021/12/14 09:32:56;;;;;;;18.50;10.93;;;;;;;0.09;77.75;101969.84;5095851;28;20679;-75
2021/12/14 09:35:25;;;;;;;16.10;10.47;;;;;;;0.07;77.93;101970.81;5096500;28;20289;-69
2021/12/14 09:37:54;;;;;;;14.70;10.87;;;;;;;-0.06;78.26;101962.63;5096923;28;20038;-74
2021/12/14 09:40:35;;;;;;;14.73;8.77;;;;;;;0.10;78.15;101961.06;5095570;28;20262;-70
2021/12/14 09:43:01;;;;;;;15.97;10.83;;;;;;;0.14;77.58;101965.25;5094706;28;20434;-64
2021/12/14 09:45:34;;;;;;;18.27;10.63;;;;;;;0.07;77.83;101970.81;5093899;28;20765;-70
2021/12/14 09:48:07;;;;;;;18.23;8.73;;;;;;;-0.08;77.57;101936.50;5094300;28;20273;-70
2021/12/14 09:50:35;;;;;;;20.83;11.37;;;;;;;0.03;77.54;101959.63;5093167;28;20335;-75
2021/12/14 09:53:05;;;;;;;14.93;10.27;;;;;;;0.10;77.88;101953.19;5094426;28;20300;-71
2021/12/14 09:55:34;;;;;;;18.47;12.00;;;;;;;0.03;77.25;101922.97;5093393;28;20377;-69
2021/12/14 09:58:06;;;;;;;14.33;10.07;;;;;;;0.12;76.98;101953.13;5093293;28;20262;-69
2021/12/14 10:01:23;;;;;;;18.57;10.93;;;;;;;0.11;77.98;101946.19;5093771;28;20274;-69
2021/12/14 10:03:53;;;;;;;23.97;12.10;;;;;;;0.05;77.50;101942.06;5084107;28;20695;-68
2021/12/14 10:06:24;;;;;;;16.83;12.00;;;;;;;-0.01;77.88;101934.47;5091891;28;20281;-67
2021/12/14 10:08:57;;;;;;;19.53;13.40;;;;;;;-0.04;77.41;101931.97;5092110;28;20266;-68
2021/12/14 10:14:28;;;;;;;16.97;11.87;;;;;;;-0.13;77.61;101916.66;5091007;28;20333;-74
2021/12/14 10:16:54;;;;;;;19.97;12.43;;;;;;;0.03;77.62;101922.09;5093691;28;20301;-71
2021/12/14 10:19:24;;;;;;;15.23;10.13;;;;;;;-0.18;77.10;101874.97;5093938;28;20629;-74
2021/12/14 10:21:55;;;;;;;18.53;11.07;;;;;;;0.04;77.82;101916.81;5092479;28;20750;-75
2021/12/14 10:24:23;;;;;;;19.40;12.77;;;;;;;0.05;77.22;101921.13;5101354;28;20324;-73
2021/12/14 10:27:18;;;;;;;17.27;11.07;;;;;;;0.08;77.83;101920.97;5098966;28;20672;-68
2021/12/14 10:29:46;;;;;;;15.47;10.53;;;;;;;0.22;77.46;101917.75;5113880;28;20273;-74
2021/12/14 10:32:17;;;;;;;18.00;11.60;;;;;;;0.21;76.51;101916.88;5113858;28;20384;-65
2021/12/14 10:35:00;;;;;;;14.57;10.07;;;;;;;-0.02;77.02;101890.84;5113854;28;20768;-78
2021/12/14 10:38:12;;;;;;;17.07;10.63;;;;;;;0.00;77.10;101910.00;5113734;28;20672;-67
2021/12/14 10:43:15;;;;;;;18.30;10.88;;;;;;;-0.17;77.99;101891.53;5113546;28;20286;-72
2021/12/14 10:45:47;;;;;;;13.23;9.48;;;;;;;-0.09;77.57;101892.91;5113085;28;20042;-66
2021/12/14 10:48:13;;;;;;;16.73;11.00;;;;;;;-0.05;77.91;101904.09;5112970;28;20502;-69
2021/12/14 10:50:39;;;;;;;16.23;10.40;;;;;;;-0.15;77.21;101881.84;5112959;28;20282;-67
2021/12/14 10:53:09;;;;;;;15.00;10.17;;;;;;;-0.03;77.34;101900.47;5113049;28;20024;-65
2021/12/14 10:55:44;;;;;;;17.77;11.20;;;;;;;-0.29;77.35;101853.63;5112755;28;20289;-73
2021/12/14 10:58:12;;;;;;;16.87;11.00;;;;;;;-0.46;77.71;101830.81;5113415;28;20396;-73
2021/12/14 11:00:48;;;;;;;13.07;9.30;;;;;;;-0.04;77.44;101895.31;5113007;28;20265;-71
2021/12/14 11:03:20;;;;;;;15.03;10.07;;;;;;;-0.15;77.26;101879.22;5113826;28;20047;-73
2021/12/14 11:05:51;;;;;;;14.17;9.33;;;;;;;-0.17;77.16;101883.69;5113467;28;20628;-69
2021/12/14 11:12:17;;;;;;;19.50;11.87;;;;;;;-0.49;77.50;101819.63;5107894;28;20864;-69
2021/12/14 11:14:44;;;;;;;15.67;9.73;;;;;;;-0.20;77.72;101863.72;5000763;28;20449;-65
2021/12/14 11:20:19;;;;;;;14.23;10.60;;;;;;;-0.28;77.45;101851.91;5050175;28;20329;-67
2021/12/14 11:23:02;;;;;;;16.07;10.47;;;;;;;-0.18;77.79;101861.88;5050101;28;20363;-67
2021/12/14 11:25:33;;;;;;;15.37;10.20;;;;;;;-0.16;77.41;101861.81;5049353;28;20310;-66
2021/12/14 11:28:06;;;;;;;21.07;11.57;;;;;;;-0.21;77.50;101845.47;5049340;28;20774;-66
2021/12/14 11:30:46;;;;;;;16.07;10.93;;;;;;;-0.19;77.04;101854.94;5049484;28;20806;-68
2021/12/14 11:33:19;;;;;;;15.70;10.47;;;;;;;-0.18;77.51;101847.94;5049557;28;20272;-67
2021/12/14 11:35:59;;;;;;;13.67;10.10;;;;;;;-0.12;77.87;101843.28;5049245;28;20815;-65
2021/12/14 11:38:40;;;;;;;12.77;9.37;;;;;;;-0.09;77.91;101850.16;5049367;28;20672;-61
2021/12/14 11:41:50;;;;;;;16.10;10.37;;;;;;;-0.08;77.45;101841.38;5049594;28;20748;-71
2021/12/14 11:44:27;;;;;;;15.87;10.07;;;;;;;-0.08;77.81;101846.63;5013132;28;20393;-70
2021/12/14 11:50:12;;;;;;;12.33;8.53;;;;;;;-0.15;77.37;101832.94;5114472;28;20262;-67
2021/12/14 11:52:57;;;;;;;13.47;10.13;;;;;;;-0.30;77.52;101820.53;5113456;28;20315;-69
2021/12/14 11:55:48;;;;;;;21.10;11.17;;;;;;;-0.20;78.48;101832.31;5096092;28;20380;-68
2021/12/14 11:58:30;;;;;;;15.02;9.75;;;;;;;-0.22;78.25;101817.59;5114775;28;20293;-76
2021/12/14 12:01:05;;;;;;;19.23;12.00;;;;;;;-0.24;78.23;101809.81;5096699;28;20448;-65
2021/12/14 12:03:53;;;;;;;26.27;13.47;;;;;;;-0.21;77.70;101814.06;5113255;28;20269;-67
2021/12/14 12:09:28;;;;;;;15.80;9.97;;;;;;;-0.38;77.79;101773.75;5119353;28;20343;-78
2021/12/14 12:12:10;;;;;;;13.60;8.60;;;;;;;-0.27;77.70;101788.16;5112911;28;20271;-67
2021/12/14 12:14:36;;;;;;;20.30;11.30;;;;;;;-0.27;77.65;101798.63;5094103;28;20688;-66
2021/12/14 12:17:26;;;;;;;15.27;9.33;;;;;;;-0.34;77.76;101792.78;5112399;28;20272;-70
2021/12/14 12:19:57;;;;;;;13.80;9.33;;;;;;;-0.39;77.82;101785.13;5111942;28;20123;-68
2021/12/14 12:22:24;;;;;;;17.20;10.70;;;;;;;-0.48;78.24;101774.25;5112126;28;20291;-66